createdAt,value
2022-09-12T00:02:04.028Z,13.40
2022-09-12T00:04:31.008Z,13.40
2022-09-12T00:06:58.027Z,13.40
2022-09-12T00:09:24.983Z,13.50
2022-09-12T00:11:52.068Z,13.50
2022-09-12T00:14:19.528Z,13.50
2022-09-12T00:16:46.932Z,13.40
2022-09-12T00:19:13.956Z,13.40
2022-09-12T00:21:41.821Z,13.40
2022-09-12T00:24:09.528Z,13.30
2022-09-12T00:26:37.165Z,13.10
2022-09-12T00:29:04.500Z,13.10
2022-09-12T00:31:31.769Z,13.20
2022-09-12T00:34:00.961Z,13.10
2022-09-12T00:36:30.471Z,13.10
2022-09-12T00:38:57.870Z,13.00
2022-09-12T00:41:28.064Z,13.00
2022-09-12T00:44:05.799Z,12.90
2022-09-12T00:46:50.582Z,12.80
2022-09-12T00:49:26.711Z,12.70
2022-09-12T00:52:19.868Z,12.60
2022-09-12T00:55:02.755Z,12.60
2022-09-12T00:57:38.314Z,12.70
2022-09-12T01:00:15.811Z,12.70
2022-09-12T01:02:51.389Z,12.70
2022-09-12T01:05:19.294Z,12.70
2022-09-12T01:07:50.375Z,12.70
2022-09-12T01:10:19.294Z,12.70
2022-09-12T01:12:48.104Z,12.70
2022-09-12T01:15:15.196Z,12.70
2022-09-12T01:17:56.251Z,12.70
2022-09-12T01:21:01.387Z,12.70
2022-09-12T01:23:50.186Z,12.70
2022-09-12T01:26:38.520Z,12.70
2022-09-12T01:29:23.411Z,12.70
2022-09-12T01:31:59.833Z,12.60
2022-09-12T01:34:35.641Z,12.60
2022-09-12T01:37:36.267Z,12.70
2022-09-12T01:40:26.329Z,12.70
2022-09-12T01:43:07.087Z,12.70
2022-09-12T01:46:06.353Z,12.60
2022-09-12T01:48:44.503Z,12.60
2022-09-12T01:51:32.339Z,12.60
2022-09-12T01:54:07.428Z,12.60
2022-09-12T01:56:38.427Z,12.50
2022-09-12T01:59:12.557Z,12.50
2022-09-12T02:01:46.850Z,12.50
2022-09-12T02:04:33.594Z,12.50
2022-09-12T02:07:19.255Z,12.40
2022-09-12T02:10:02.409Z,12.40
2022-09-12T02:12:37.391Z,12.40
2022-09-12T02:15:09.286Z,12.40
2022-09-12T02:17:41.199Z,12.30
2022-09-12T02:20:47.050Z,12.20
2022-09-12T02:23:23.346Z,12.20
2022-09-12T02:26:00.420Z,12.10
2022-09-12T02:28:33.735Z,12.10
2022-09-12T02:31:20.623Z,12.10
2022-09-12T02:34:03.048Z,12.10
2022-09-12T02:36:59.118Z,12.00
2022-09-12T02:39:26.260Z,12.00
2022-09-12T02:41:56.584Z,12.00
2022-09-12T02:44:26.140Z,12.00
2022-09-12T02:47:14.265Z,12.00
2022-09-12T02:49:41.462Z,12.10
2022-09-12T02:52:08.558Z,12.10
2022-09-12T02:54:38.393Z,12.00
2022-09-12T02:57:17.681Z,12.10
2022-09-12T02:59:49.082Z,12.10
2022-09-12T03:02:34.535Z,12.10
2022-09-12T03:05:21.675Z,12.00
2022-09-12T03:08:10.312Z,12.00
2022-09-12T03:11:05.362Z,12.10
2022-09-12T03:13:51.025Z,12.10
2022-09-12T03:16:46.205Z,12.20
2022-09-12T03:19:38.653Z,12.20
2022-09-12T03:22:53.883Z,12.20
2022-09-12T03:25:33.007Z,12.20
2022-09-12T03:28:10.192Z,12.20
2022-09-12T03:30:42.856Z,12.20
2022-09-12T03:33:18.912Z,12.30
2022-09-12T03:35:47.618Z,12.20
2022-09-12T03:38:15.249Z,12.20
2022-09-12T03:40:42.674Z,12.30
2022-09-12T03:43:10.808Z,12.30
2022-09-12T03:45:38.424Z,12.30
2022-09-12T03:48:06.336Z,12.30
2022-09-12T03:50:33.955Z,12.30
2022-09-12T03:53:02.581Z,12.30
2022-09-12T03:55:29.688Z,12.40
2022-09-12T03:57:57.219Z,12.40
2022-09-12T04:00:25.479Z,12.40
2022-09-12T04:02:57.150Z,12.30
2022-09-12T04:05:25.090Z,12.40
2022-09-12T04:07:52.564Z,12.40
2022-09-12T04:10:19.653Z,12.40
2022-09-12T04:12:46.680Z,12.40
2022-09-12T04:15:13.778Z,12.40
2022-09-12T04:17:40.780Z,12.40
2022-09-12T04:20:08.168Z,12.40
2022-09-12T04:22:35.213Z,12.40
2022-09-12T04:25:02.323Z,12.40
2022-09-12T04:27:29.351Z,12.50
2022-09-12T04:29:57.211Z,12.40
2022-09-12T04:32:24.373Z,12.40
2022-09-12T04:34:52.536Z,12.50
2022-09-12T04:37:19.596Z,12.40
2022-09-12T04:39:49.052Z,12.50
2022-09-12T04:42:16.607Z,12.50
2022-09-12T04:44:43.905Z,12.50
2022-09-12T04:47:10.875Z,12.50
2022-09-12T04:49:37.917Z,12.40
2022-09-12T04:52:05.008Z,12.50
2022-09-12T04:54:32.158Z,12.50
2022-09-12T04:57:00.013Z,12.40
2022-09-12T04:59:27.048Z,12.40
2022-09-12T05:01:54.387Z,12.40
2022-09-12T05:04:21.648Z,12.40
2022-09-12T05:06:48.758Z,12.40
2022-09-12T05:09:16.582Z,12.50
2022-09-12T05:12:04.296Z,12.40
2022-09-12T05:14:33.189Z,12.40
2022-09-12T05:17:01.850Z,12.40
2022-09-12T05:19:30.714Z,12.50
2022-09-12T05:21:58.133Z,12.50
2022-09-12T05:24:25.621Z,12.50
2022-09-12T05:26:53.029Z,12.50
2022-09-12T05:29:20.136Z,12.50
2022-09-12T05:31:52.235Z,12.60
2022-09-12T05:34:20.505Z,12.60
2022-09-12T05:36:47.689Z,12.60
2022-09-12T05:39:15.014Z,12.60
2022-09-12T05:41:42.278Z,12.60
2022-09-12T05:44:12.646Z,12.70
2022-09-12T05:46:42.465Z,12.70
2022-09-12T05:49:13.115Z,12.70
2022-09-12T05:51:45.372Z,12.70
2022-09-12T05:54:15.057Z,12.70
2022-09-12T05:56:44.119Z,12.80
2022-09-12T05:59:21.479Z,12.80
2022-09-12T06:01:49.041Z,12.80
2022-09-12T06:04:16.391Z,12.90
2022-09-12T06:06:48.881Z,13.00
2022-09-12T06:09:17.359Z,13.00
2022-09-12T06:11:45.750Z,13.10
2022-09-12T06:14:15.456Z,13.10
2022-09-12T06:16:43.003Z,13.20
2022-09-12T06:19:28.369Z,13.30
2022-09-12T06:21:55.437Z,13.40
2022-09-12T06:24:22.729Z,13.50
2022-09-12T06:26:52.827Z,13.50
2022-09-12T06:29:20.422Z,13.50
2022-09-12T06:31:47.365Z,13.60
2022-09-12T06:34:15.986Z,13.80
2022-09-12T06:36:48.348Z,13.90
2022-09-12T06:39:17.885Z,13.90
2022-09-12T06:41:45.344Z,14.00
2022-09-12T06:44:22.489Z,14.00
2022-09-12T06:46:50.023Z,14.10
2022-09-12T06:49:17.865Z,14.10
2022-09-12T06:51:44.963Z,14.30
2022-09-12T06:54:17.299Z,14.50
2022-09-12T06:56:44.965Z,14.50
2022-09-12T06:59:12.614Z,14.60
2022-09-12T07:01:41.207Z,14.70
2022-09-12T07:04:08.655Z,14.80
2022-09-12T07:06:39.095Z,14.90
2022-09-12T07:09:09.926Z,14.90
2022-09-12T07:11:39.177Z,15.00
2022-09-12T07:14:08.000Z,15.10
2022-09-12T07:16:36.710Z,15.20
2022-09-12T07:19:05.879Z,15.40
2022-09-12T07:21:36.479Z,15.70
2022-09-12T07:24:03.752Z,15.80
2022-09-12T07:26:30.721Z,16.00
2022-09-12T07:29:18.693Z,16.30
2022-09-12T07:31:46.736Z,16.40
2022-09-12T07:34:14.058Z,16.40
2022-09-12T07:36:41.079Z,16.60
2022-09-12T07:39:08.182Z,16.70
2022-09-12T07:41:35.120Z,16.80
2022-09-12T07:44:03.709Z,17.00
2022-09-12T07:46:31.865Z,17.20
2022-09-12T07:49:00.771Z,17.30
2022-09-12T07:51:29.511Z,17.20
2022-09-12T07:53:56.751Z,17.30
2022-09-12T07:56:29.349Z,17.50
2022-09-12T07:58:57.297Z,17.50
2022-09-12T08:01:24.472Z,17.50
2022-09-12T08:03:55.819Z,17.60
2022-09-12T08:06:24.906Z,17.70
2022-09-12T08:08:53.112Z,17.80
2022-09-12T08:11:22.688Z,17.80
2022-09-12T08:13:55.416Z,17.90
2022-09-12T08:16:25.463Z,18.10
2022-09-12T08:18:52.506Z,18.30
2022-09-12T08:21:24.850Z,18.40
2022-09-12T08:23:57.135Z,18.70
2022-09-12T08:26:24.886Z,18.90
2022-09-12T08:28:53.286Z,18.90
2022-09-12T08:31:22.369Z,19.20
2022-09-12T08:33:50.143Z,19.60
2022-09-12T08:36:28.135Z,19.80
2022-09-12T08:38:59.871Z,19.90
2022-09-12T08:41:36.412Z,20.30
2022-09-12T08:44:24.547Z,20.40
2022-09-12T08:47:19.279Z,20.40
2022-09-12T08:50:05.132Z,20.40
2022-09-12T08:52:54.773Z,20.20
2022-09-12T08:55:24.920Z,20.10
2022-09-12T08:57:52.694Z,20.20
2022-09-12T09:00:21.523Z,20.30
2022-09-12T09:02:48.640Z,20.40
2022-09-12T09:05:42.934Z,20.40
2022-09-12T09:08:10.752Z,20.30
2022-09-12T09:10:59.500Z,20.30
2022-09-12T09:14:05.460Z,20.30
2022-09-12T09:16:36.423Z,20.50
2022-09-12T09:19:09.516Z,20.60
2022-09-12T09:21:50.860Z,20.70
2022-09-12T09:24:25.080Z,20.70
2022-09-12T09:27:00.812Z,20.70
2022-09-12T09:29:41.632Z,20.90
2022-09-12T09:32:30.883Z,21.10
2022-09-12T09:34:57.846Z,21.10
2022-09-12T09:37:50.851Z,21.30
2022-09-12T09:40:24.681Z,21.40
2022-09-12T09:43:03.192Z,21.70
2022-09-12T09:45:30.279Z,21.80
2022-09-12T09:48:09.945Z,22.00
2022-09-12T09:50:38.293Z,22.20
2022-09-12T09:53:17.837Z,22.20
2022-09-12T09:55:45.869Z,22.20
2022-09-12T09:58:29.019Z,22.20
2022-09-12T10:01:12.335Z,22.00
2022-09-12T10:03:40.488Z,22.10
2022-09-12T10:06:32.979Z,22.20
2022-09-12T10:09:27.458Z,22.40
2022-09-12T10:11:56.941Z,22.60
2022-09-12T10:14:30.169Z,22.80
2022-09-12T10:16:58.650Z,22.90
2022-09-12T10:19:36.180Z,22.80
2022-09-12T10:22:04.858Z,22.60
2022-09-12T10:24:40.655Z,22.70
2022-09-12T10:27:12.222Z,22.80
2022-09-12T10:29:42.836Z,23.00
2022-09-12T10:32:10.044Z,23.10
2022-09-12T10:34:45.138Z,23.10
2022-09-12T10:37:32.626Z,23.40
2022-09-12T10:40:01.620Z,23.40
2022-09-12T10:42:50.426Z,23.50
2022-09-12T10:45:24.799Z,23.60
2022-09-12T10:47:53.405Z,23.80
2022-09-12T10:50:43.807Z,24.00
2022-09-12T10:53:17.076Z,24.20
2022-09-12T10:55:53.520Z,24.20
2022-09-12T10:58:36.767Z,23.90
2022-09-12T11:01:19.493Z,23.80
2022-09-12T11:04:28.576Z,24.10
2022-09-12T11:07:03.702Z,24.40
2022-09-12T11:10:03.977Z,24.20
2022-09-12T11:13:03.805Z,24.50
2022-09-12T11:15:50.079Z,24.60
2022-09-12T11:18:48.174Z,24.90
2022-09-12T11:21:45.093Z,25.10
2022-09-12T11:24:15.067Z,24.80
2022-09-12T11:26:48.230Z,24.70
2022-09-12T11:29:37.929Z,24.60
2022-09-12T11:32:18.316Z,24.70
2022-09-12T11:34:49.651Z,24.60
2022-09-12T11:38:03.252Z,24.50
2022-09-12T11:40:56.559Z,24.60
2022-09-12T11:43:32.455Z,24.70
2022-09-12T11:46:22.775Z,24.60
2022-09-12T11:48:59.451Z,24.50
2022-09-12T11:51:42.916Z,24.50
2022-09-12T11:54:14.029Z,24.30
2022-09-12T11:56:45.863Z,24.10
2022-09-12T11:59:27.125Z,24.00
2022-09-12T12:01:59.719Z,23.90
2022-09-12T12:04:38.027Z,24.10
2022-09-12T12:07:10.925Z,24.20
2022-09-12T12:09:50.470Z,24.40
2022-09-12T12:12:24.875Z,24.50
2022-09-12T12:14:55.505Z,24.40
2022-09-12T12:17:24.430Z,24.30
2022-09-12T12:20:08.211Z,24.20
2022-09-12T12:22:36.139Z,23.80
2022-09-12T12:25:08.141Z,23.50
2022-09-12T12:27:59.184Z,23.50
2022-09-12T12:30:33.538Z,23.70
2022-09-12T12:33:26.892Z,23.90
2022-09-12T12:36:00.014Z,24.10
2022-09-12T12:38:29.837Z,24.30
2022-09-12T12:41:18.631Z,24.50
2022-09-12T12:43:48.066Z,24.50
2022-09-12T12:46:17.228Z,24.40
2022-09-12T12:49:06.421Z,24.50
2022-09-12T12:51:54.915Z,24.40
2022-09-12T12:54:49.848Z,24.10
2022-09-12T12:57:23.240Z,24.00
2022-09-12T13:00:06.930Z,24.10
2022-09-12T13:02:38.489Z,24.30
2022-09-12T13:05:08.057Z,24.30
2022-09-12T13:07:39.988Z,24.30
2022-09-12T13:10:08.703Z,24.40
2022-09-12T13:12:44.142Z,24.60
2022-09-12T13:15:35.457Z,24.70
2022-09-12T13:18:06.128Z,24.60
2022-09-12T13:20:38.216Z,24.40
2022-09-12T13:23:05.132Z,24.00
2022-09-12T13:25:37.283Z,24.00
2022-09-12T13:28:13.292Z,24.10
2022-09-12T13:30:44.806Z,24.20
2022-09-12T13:33:40.382Z,24.10
2022-09-12T13:36:33.105Z,24.10
2022-09-12T13:39:15.842Z,24.00
2022-09-12T13:42:02.267Z,23.90
2022-09-12T13:44:31.172Z,24.00
2022-09-12T13:47:01.627Z,23.90
2022-09-12T13:49:38.903Z,23.80
2022-09-12T13:52:20.980Z,23.80
2022-09-12T13:54:52.019Z,23.90
2022-09-12T13:57:41.282Z,23.90
2022-09-12T14:00:18.270Z,23.80
2022-09-12T14:02:46.477Z,23.90
2022-09-12T14:05:25.764Z,24.00
2022-09-12T14:07:58.818Z,23.90
2022-09-12T14:10:34.056Z,23.90
2022-09-12T14:13:05.600Z,23.90
2022-09-12T14:15:34.018Z,23.80
2022-09-12T14:18:03.462Z,23.80
2022-09-12T14:20:32.750Z,23.80
2022-09-12T14:23:12.520Z,23.80
2022-09-12T14:25:41.660Z,23.80
2022-09-12T14:28:14.738Z,23.90
2022-09-12T14:30:41.778Z,23.90
2022-09-12T14:33:11.812Z,23.80
2022-09-12T14:35:43.773Z,23.90
2022-09-12T14:38:17.037Z,23.90
2022-09-12T14:40:49.691Z,24.00
2022-09-12T14:43:32.989Z,24.00
2022-09-12T14:46:07.371Z,24.00
2022-09-12T14:48:46.965Z,23.80
2022-09-12T14:51:34.769Z,23.80
2022-09-12T14:54:02.952Z,23.80
2022-09-12T14:56:45.222Z,23.70
2022-09-12T14:59:47.876Z,23.80
2022-09-12T15:02:20.972Z,23.90
2022-09-12T15:04:52.352Z,23.90
2022-09-12T15:07:39.218Z,23.90
2022-09-12T15:10:13.616Z,24.10
2022-09-12T15:12:40.527Z,23.90
2022-09-12T15:15:19.820Z,23.90
2022-09-12T15:17:47.225Z,23.90
2022-09-12T15:20:14.843Z,23.90
2022-09-12T15:22:42.341Z,23.70
2022-09-12T15:25:12.427Z,23.70
2022-09-12T15:27:40.967Z,23.70
2022-09-12T15:30:13.339Z,23.70
2022-09-12T15:32:42.194Z,23.60
2022-09-12T15:35:32.629Z,23.60
2022-09-12T15:37:59.581Z,23.50
2022-09-12T15:40:26.705Z,23.40
2022-09-12T15:42:53.627Z,23.30
2022-09-12T15:45:27.979Z,23.30
2022-09-12T15:47:55.816Z,23.30
2022-09-12T15:50:23.149Z,23.10
2022-09-12T15:52:50.835Z,23.00
2022-09-12T15:55:27.933Z,23.00
2022-09-12T15:57:55.612Z,23.00
2022-09-12T16:00:23.007Z,22.80
2022-09-12T16:02:52.690Z,22.80
2022-09-12T16:05:25.866Z,22.70
2022-09-12T16:07:54.321Z,22.80
2022-09-12T16:10:31.176Z,22.70
2022-09-12T16:12:58.523Z,22.70
2022-09-12T16:15:26.206Z,22.70
2022-09-12T16:17:53.717Z,22.60
2022-09-12T16:20:22.047Z,22.50
2022-09-12T16:22:49.431Z,22.50
2022-09-12T16:25:17.380Z,22.40
2022-09-12T16:27:45.180Z,22.40
2022-09-12T16:30:13.258Z,22.30
2022-09-12T16:32:40.565Z,22.20
2022-09-12T16:35:08.293Z,22.10
2022-09-12T16:37:35.496Z,22.00
2022-09-12T16:40:06.843Z,22.00
2022-09-12T16:42:33.998Z,21.90
2022-09-12T16:45:00.986Z,21.90
2022-09-12T16:47:32.165Z,21.80
2022-09-12T16:49:59.698Z,21.70
2022-09-12T16:52:26.956Z,21.70
2022-09-12T16:54:53.954Z,21.60
2022-09-12T16:57:20.931Z,21.60
2022-09-12T16:59:47.867Z,21.50
2022-09-12T17:02:15.445Z,21.40
2022-09-12T17:04:42.410Z,21.40
2022-09-12T17:07:09.522Z,21.40
2022-09-12T17:09:36.488Z,21.20
2022-09-12T17:12:04.230Z,21.30
2022-09-12T17:14:31.262Z,21.30
2022-09-12T17:16:58.324Z,21.30
2022-09-12T17:19:28.126Z,21.20
2022-09-12T17:21:55.853Z,21.20
2022-09-12T17:24:23.938Z,21.20
2022-09-12T17:26:51.988Z,21.10
2022-09-12T17:29:19.047Z,21.00
2022-09-12T17:31:46.719Z,21.00
2022-09-12T17:34:17.957Z,20.90
2022-09-12T17:36:46.420Z,20.90
2022-09-12T17:39:14.720Z,20.80
2022-09-12T17:41:42.782Z,20.70
2022-09-12T17:44:13.967Z,20.60
2022-09-12T17:46:41.561Z,20.50
2022-09-12T17:49:14.255Z,20.40
2022-09-12T17:51:41.774Z,20.40
2022-09-12T17:54:18.378Z,20.40
2022-09-12T17:56:46.670Z,20.40
2022-09-12T17:59:17.444Z,20.30
2022-09-12T18:02:03.329Z,20.30
2022-09-12T18:04:31.128Z,20.10
2022-09-12T18:07:00.683Z,20.20
2022-09-12T18:09:28.805Z,20.10
2022-09-12T18:11:56.541Z,20.00
2022-09-12T18:14:25.136Z,20.00
2022-09-12T18:16:52.606Z,20.00
2022-09-12T18:19:20.101Z,19.90
2022-09-12T18:21:47.266Z,20.00
2022-09-12T18:24:14.672Z,19.90
2022-09-12T18:26:43.902Z,19.90
2022-09-12T18:29:11.742Z,19.90
2022-09-12T18:31:39.124Z,19.80
2022-09-12T18:34:08.133Z,19.80
2022-09-12T18:36:35.247Z,19.70
2022-09-12T18:39:02.547Z,19.70
2022-09-12T18:41:29.601Z,19.60
2022-09-12T18:43:58.579Z,19.70
2022-09-12T18:46:27.151Z,19.60
2022-09-12T18:48:58.331Z,19.60
2022-09-12T18:51:32.131Z,19.60
2022-09-12T18:54:06.244Z,19.50
2022-09-12T18:56:36.366Z,19.50
2022-09-12T18:59:06.361Z,19.50
2022-09-12T19:01:36.307Z,19.50
2022-09-12T19:04:07.932Z,19.50
2022-09-12T19:06:38.780Z,19.30
2022-09-12T19:09:08.434Z,19.20
2022-09-12T19:11:40.973Z,19.20
2022-09-12T19:14:08.428Z,19.20
2022-09-12T19:16:35.907Z,19.10
2022-09-12T19:19:03.879Z,19.10
2022-09-12T19:21:33.276Z,19.10
2022-09-12T19:24:04.010Z,19.10
2022-09-12T19:26:31.659Z,19.00
2022-09-12T19:28:59.656Z,19.00
2022-09-12T19:31:27.285Z,19.00
2022-09-12T19:34:02.789Z,18.90
2022-09-12T19:36:47.333Z,18.70
2022-09-12T19:39:16.740Z,18.60
2022-09-12T19:41:44.674Z,18.60
2022-09-12T19:44:12.478Z,18.60
2022-09-12T19:46:40.521Z,18.50
2022-09-12T19:49:07.771Z,18.50
2022-09-12T19:51:34.803Z,18.40
2022-09-12T19:54:02.244Z,18.30
2022-09-12T19:56:29.466Z,18.30
2022-09-12T19:58:57.003Z,18.30
2022-09-12T20:01:28.643Z,18.30
2022-09-12T20:03:57.485Z,18.30
2022-09-12T20:06:25.399Z,18.10
2022-09-12T20:08:52.505Z,18.10
2022-09-12T20:11:21.924Z,17.90
2022-09-12T20:13:49.363Z,17.70
2022-09-12T20:16:22.053Z,17.70
2022-09-12T20:18:54.711Z,17.70
2022-09-12T20:21:31.753Z,17.70
2022-09-12T20:24:03.493Z,17.70
2022-09-12T20:26:31.019Z,17.70
2022-09-12T20:28:58.018Z,17.60
2022-09-12T20:31:25.106Z,17.50
2022-09-12T20:33:52.310Z,17.30
2022-09-12T20:36:20.706Z,17.20
2022-09-12T20:38:50.240Z,17.20
2022-09-12T20:41:17.943Z,17.20
2022-09-12T20:43:45.065Z,17.20
2022-09-12T20:46:12.299Z,17.20
2022-09-12T20:48:39.784Z,17.10
2022-09-12T20:51:07.617Z,17.00
2022-09-12T20:53:35.556Z,16.80
2022-09-12T20:56:05.383Z,16.80
2022-09-12T20:58:32.619Z,16.90
2022-09-12T21:01:06.815Z,16.90
2022-09-12T21:03:38.642Z,16.90
2022-09-12T21:06:06.989Z,16.70
2022-09-12T21:08:35.460Z,16.70
2022-09-12T21:11:02.893Z,16.70
2022-09-12T21:13:30.057Z,16.60
2022-09-12T21:16:21.093Z,16.50
2022-09-12T21:18:52.825Z,16.50
2022-09-12T21:21:19.792Z,16.50
2022-09-12T21:23:47.120Z,16.40
2022-09-12T21:26:14.032Z,16.20
2022-09-12T21:28:41.050Z,16.30
2022-09-12T21:31:08.745Z,16.30
2022-09-12T21:33:36.360Z,16.10
2022-09-12T21:36:05.061Z,16.10
2022-09-12T21:38:32.402Z,16.10
2022-09-12T21:41:07.092Z,16.10
2022-09-12T21:43:34.850Z,16.10
2022-09-12T21:46:02.227Z,16.00
2022-09-12T21:48:29.567Z,15.90
2022-09-12T21:50:56.732Z,15.80
2022-09-12T21:53:24.232Z,15.80
2022-09-12T21:55:51.549Z,15.80
2022-09-12T21:58:18.654Z,15.70
2022-09-12T22:00:45.886Z,15.70
2022-09-12T22:03:13.065Z,15.70
2022-09-12T22:05:40.340Z,15.70
2022-09-12T22:08:11.591Z,15.50
2022-09-12T22:10:38.797Z,15.50
2022-09-12T22:13:05.820Z,15.50
2022-09-12T22:15:41.240Z,15.40
2022-09-12T22:18:08.624Z,15.40
2022-09-12T22:20:35.595Z,15.20
2022-09-12T22:23:24.658Z,15.20
2022-09-12T22:25:55.226Z,15.20
2022-09-12T22:28:22.681Z,15.20
2022-09-12T22:30:49.734Z,15.20
2022-09-12T22:33:16.864Z,15.20
2022-09-12T22:35:44.371Z,15.20
2022-09-12T22:38:11.335Z,15.20
2022-09-12T22:40:38.467Z,15.20
2022-09-12T22:43:05.724Z,15.10
2022-09-12T22:45:32.696Z,15.10
2022-09-12T22:48:00.908Z,15.00
2022-09-12T22:50:28.164Z,15.00
2022-09-12T22:52:55.353Z,15.00
2022-09-12T22:55:22.313Z,15.00
2022-09-12T22:57:49.358Z,14.90
2022-09-12T23:00:17.897Z,15.00
2022-09-12T23:02:45.080Z,14.90
2022-09-12T23:05:12.408Z,14.90
2022-09-12T23:07:39.401Z,14.90
2022-09-12T23:10:07.104Z,14.80
2022-09-12T23:12:34.025Z,14.80
2022-09-12T23:15:01.077Z,14.80
2022-09-12T23:17:28.022Z,14.80
2022-09-12T23:19:54.948Z,14.70
2022-09-12T23:22:21.894Z,14.70
2022-09-12T23:24:48.833Z,14.70
2022-09-12T23:27:15.812Z,14.80
2022-09-12T23:29:42.829Z,14.80
2022-09-12T23:32:09.742Z,14.80
2022-09-12T23:34:36.697Z,14.80
2022-09-12T23:37:03.743Z,14.80
2022-09-12T23:39:31.373Z,14.80
2022-09-12T23:41:58.364Z,14.70
2022-09-12T23:44:25.346Z,14.70
2022-09-12T23:46:52.289Z,14.70
2022-09-12T23:49:19.892Z,14.70
2022-09-12T23:51:46.954Z,14.60
2022-09-12T23:54:14.117Z,14.50
2022-09-12T23:56:41.037Z,14.60
2022-09-12T23:59:08.069Z,14.60
